createdAt,value
2023-04-20T00:00:35.015Z,8.94
2023-04-20T00:01:35.015Z,8.88
2023-04-20T00:02:35.118Z,8.94
2023-04-20T00:03:35.154Z,8.81
2023-04-20T00:04:35.023Z,8.91
2023-04-20T00:05:35.064Z,8.94
2023-04-20T00:06:34.959Z,8.90
2023-04-20T00:07:34.947Z,8.97
2023-04-20T00:08:34.951Z,8.91
2023-04-20T00:09:34.931Z,8.93
2023-04-20T00:10:34.924Z,8.93
2023-04-20T00:11:34.949Z,8.88
2023-04-20T00:12:34.894Z,8.86
2023-04-20T00:13:34.863Z,8.90
2023-04-20T00:14:34.884Z,8.94
2023-04-20T00:15:34.855Z,8.88
2023-04-20T00:16:34.892Z,8.83
2023-04-20T00:17:34.835Z,8.93
2023-04-20T00:18:34.812Z,8.81
2023-04-20T00:19:34.863Z,8.87
2023-04-20T00:20:34.804Z,8.93
2023-04-20T00:21:34.805Z,8.84
2023-04-20T00:22:34.782Z,8.93
2023-04-20T00:23:34.768Z,8.96
2023-04-20T00:24:34.802Z,8.91
2023-04-20T00:25:34.742Z,8.91
2023-04-20T00:26:34.720Z,8.83
2023-04-20T00:27:34.720Z,8.94
2023-04-20T00:28:34.715Z,8.91
2023-04-20T00:29:34.705Z,8.91
2023-04-20T00:30:34.763Z,8.96
2023-04-20T00:31:34.656Z,8.99
2023-04-20T00:32:34.685Z,8.91
2023-04-20T00:33:34.636Z,8.93
2023-04-20T00:34:34.644Z,8.94
2023-04-20T00:35:34.615Z,8.91
2023-04-20T00:36:34.606Z,8.93
2023-04-20T00:37:34.610Z,9.01
2023-04-20T00:38:34.588Z,8.99
2023-04-20T00:39:34.596Z,8.94
2023-04-20T00:40:34.570Z,9.01
2023-04-20T00:41:34.559Z,8.99
2023-04-20T00:42:34.535Z,9.05
2023-04-20T00:43:34.521Z,8.97
2023-04-20T00:44:34.558Z,8.91
2023-04-20T00:45:34.506Z,9.02
2023-04-20T00:46:34.567Z,8.93
2023-04-20T00:47:34.498Z,9.05
2023-04-20T00:48:34.482Z,9.01
2023-04-20T00:49:34.468Z,9.04
2023-04-20T00:50:34.445Z,9.01
2023-04-20T00:51:34.445Z,8.91
2023-04-20T00:52:34.415Z,9.02
2023-04-20T00:53:34.446Z,9.10
2023-04-20T00:54:34.416Z,9.05
2023-04-20T00:55:34.393Z,9.06
2023-04-20T00:56:34.396Z,9.05
2023-04-20T00:57:34.363Z,9.06
2023-04-20T00:58:34.359Z,9.05
2023-04-20T00:59:34.347Z,9.01
2023-04-20T01:00:34.347Z,9.05
2023-04-20T01:01:34.322Z,9.15
2023-04-20T01:02:34.419Z,9.09
2023-04-20T01:03:34.580Z,9.09
2023-04-20T01:04:34.343Z,9.13
2023-04-20T01:05:34.276Z,9.12
2023-04-20T01:06:34.259Z,9.09
2023-04-20T01:07:34.250Z,9.12
2023-04-20T01:08:34.250Z,9.12
2023-04-20T01:09:34.276Z,9.09
2023-04-20T01:10:34.213Z,9.02
2023-04-20T01:11:34.198Z,9.10
2023-04-20T01:12:34.197Z,9.01
2023-04-20T01:13:34.183Z,9.15
2023-04-20T01:14:34.188Z,9.20
2023-04-20T01:15:34.183Z,9.09
2023-04-20T01:16:34.205Z,9.21
2023-04-20T01:17:34.165Z,9.09
2023-04-20T01:18:34.137Z,9.12
2023-04-20T01:19:34.140Z,9.21
2023-04-20T01:20:34.125Z,9.20
2023-04-20T01:21:34.104Z,9.18
2023-04-20T01:22:34.075Z,9.27
2023-04-20T01:23:34.060Z,9.23
2023-04-20T01:24:34.084Z,9.16
2023-04-20T01:25:34.064Z,9.13
2023-04-20T01:26:34.057Z,9.13
2023-04-20T01:27:34.014Z,9.10
2023-04-20T01:28:34.021Z,9.18
2023-04-20T01:29:34.030Z,9.24
2023-04-20T01:30:33.999Z,9.24
2023-04-20T01:31:34.086Z,9.25
2023-04-20T01:32:34.033Z,9.20
2023-04-20T01:33:33.966Z,9.20
2023-04-20T01:34:33.973Z,9.30
2023-04-20T01:35:33.947Z,9.21
2023-04-20T01:36:33.948Z,9.18
2023-04-20T01:37:33.927Z,9.25
2023-04-20T01:38:33.912Z,9.20
2023-04-20T01:39:33.915Z,9.15
2023-04-20T01:40:33.881Z,9.16
2023-04-20T01:41:33.980Z,9.21
2023-04-20T01:42:33.868Z,9.24
2023-04-20T01:43:33.837Z,9.18
2023-04-20T01:44:33.825Z,9.18
2023-04-20T01:45:33.827Z,9.13
2023-04-20T01:46:33.882Z,9.18
2023-04-20T01:47:33.816Z,9.25
2023-04-20T01:48:33.795Z,9.12
2023-04-20T01:49:33.767Z,9.23
2023-04-20T01:50:33.797Z,9.20
2023-04-20T01:51:33.744Z,9.21
2023-04-20T01:52:33.739Z,9.18
2023-04-20T01:53:33.734Z,9.21
2023-04-20T01:54:33.731Z,9.16
2023-04-20T01:55:33.725Z,9.15
2023-04-20T01:56:33.704Z,9.21
2023-04-20T01:57:33.704Z,9.21
2023-04-20T01:58:33.682Z,9.24
2023-04-20T01:59:33.653Z,9.16
2023-04-20T02:00:33.708Z,9.13
2023-04-20T02:01:33.638Z,9.18
2023-04-20T02:02:33.761Z,9.21
2023-04-20T02:03:33.764Z,9.13
2023-04-20T02:04:33.612Z,9.10
2023-04-20T02:05:33.625Z,9.06
2023-04-20T02:06:33.617Z,9.21
2023-04-20T02:07:33.577Z,9.21
2023-04-20T02:08:33.558Z,9.15
2023-04-20T02:09:33.547Z,9.21
2023-04-20T02:10:33.568Z,9.13
2023-04-20T02:11:33.530Z,9.16
2023-04-20T02:12:33.508Z,9.06
2023-04-20T02:13:33.526Z,9.24
2023-04-20T02:14:33.490Z,9.28
2023-04-20T02:15:33.508Z,9.18
2023-04-20T02:16:33.503Z,9.18
2023-04-20T02:17:33.548Z,9.18
2023-04-20T02:18:33.458Z,9.21
2023-04-20T02:19:33.427Z,9.15
2023-04-20T02:20:33.440Z,9.23
2023-04-20T02:21:33.415Z,9.13
2023-04-20T02:22:33.423Z,9.16
2023-04-20T02:23:33.389Z,9.23
2023-04-20T02:24:33.373Z,9.18
2023-04-20T02:25:33.350Z,9.18
2023-04-20T02:26:33.369Z,9.23
2023-04-20T02:27:33.331Z,9.23
2023-04-20T02:28:33.330Z,9.15
2023-04-20T02:29:33.346Z,9.23
2023-04-20T02:30:33.327Z,9.20
2023-04-20T02:31:33.383Z,9.13
2023-04-20T02:32:33.316Z,9.18
2023-04-20T02:33:33.280Z,9.25
2023-04-20T02:34:33.298Z,9.30
2023-04-20T02:35:33.255Z,9.16
2023-04-20T02:36:33.230Z,9.13
2023-04-20T02:37:33.236Z,9.15
2023-04-20T02:38:33.219Z,9.18
2023-04-20T02:39:33.190Z,9.15
2023-04-20T02:40:33.203Z,9.24
2023-04-20T02:41:33.181Z,9.12
2023-04-20T02:42:33.174Z,9.20
2023-04-20T02:43:33.163Z,9.21
2023-04-20T02:44:33.153Z,9.15
2023-04-20T02:45:33.183Z,9.24
2023-04-20T02:46:33.149Z,9.05
2023-04-20T02:47:33.104Z,9.16
2023-04-20T02:48:33.112Z,9.21
2023-04-20T02:49:33.082Z,9.21
2023-04-20T02:50:33.117Z,9.16
2023-04-20T02:51:33.111Z,9.12
2023-04-20T02:52:33.068Z,9.09
2023-04-20T02:53:33.037Z,9.28
2023-04-20T02:54:33.046Z,9.15
2023-04-20T02:55:33.030Z,9.15
2023-04-20T02:56:33.448Z,9.06
2023-04-20T02:57:32.997Z,9.18
2023-04-20T02:58:32.986Z,9.15
2023-04-20T02:59:32.967Z,9.04
2023-04-20T03:00:32.990Z,9.04
2023-04-20T03:01:33.008Z,9.05
2023-04-20T03:02:33.124Z,9.13
2023-04-20T03:03:33.211Z,9.02
2023-04-20T03:04:33.043Z,9.04
2023-04-20T03:05:32.926Z,9.12
2023-04-20T03:06:32.892Z,9.13
2023-04-20T03:07:32.876Z,9.20
2023-04-20T03:08:32.884Z,9.18
2023-04-20T03:09:32.893Z,9.18
2023-04-20T03:10:32.885Z,9.10
2023-04-20T03:11:32.843Z,9.21
2023-04-20T03:12:32.822Z,9.18
2023-04-20T03:13:32.830Z,9.12
2023-04-20T03:14:32.808Z,9.13
2023-04-20T03:15:32.784Z,9.09
2023-04-20T03:16:32.860Z,9.16
2023-04-20T03:17:32.803Z,9.16
2023-04-20T03:18:32.757Z,9.01
2023-04-20T03:19:32.755Z,9.20
2023-04-20T03:20:32.741Z,9.16
2023-04-20T03:21:32.720Z,9.12
2023-04-20T03:22:32.721Z,9.15
2023-04-20T03:23:32.711Z,9.27
2023-04-20T03:24:32.680Z,9.21
2023-04-20T03:25:32.711Z,9.24
2023-04-20T03:26:32.656Z,9.16
2023-04-20T03:27:32.668Z,9.23
2023-04-20T03:28:32.635Z,9.24
2023-04-20T03:29:32.656Z,9.23
2023-04-20T03:30:32.623Z,9.23
2023-04-20T03:31:32.687Z,9.24
2023-04-20T03:32:32.871Z,9.15
2023-04-20T03:33:32.632Z,9.23
2023-04-20T03:34:32.565Z,9.15
2023-04-20T03:35:32.595Z,9.25
2023-04-20T03:36:32.559Z,9.23
2023-04-20T03:37:32.551Z,9.15
2023-04-20T03:38:32.530Z,9.23
2023-04-20T03:39:32.523Z,9.18
2023-04-20T03:40:32.520Z,9.20
2023-04-20T03:41:32.499Z,9.18
2023-04-20T03:42:32.500Z,9.18
2023-04-20T03:43:32.465Z,9.05
2023-04-20T03:44:32.463Z,9.05
2023-04-20T03:45:32.462Z,9.09
2023-04-20T03:46:32.512Z,9.06
2023-04-20T03:47:32.426Z,9.05
2023-04-20T03:48:32.428Z,9.06
2023-04-20T03:49:32.431Z,9.06
2023-04-20T03:50:32.410Z,9.10
2023-04-20T03:51:32.376Z,9.05
2023-04-20T03:52:32.390Z,9.01
2023-04-20T03:53:32.356Z,8.90
2023-04-20T03:54:32.338Z,8.97
2023-04-20T03:55:32.339Z,8.96
2023-04-20T03:56:32.313Z,8.94
2023-04-20T03:57:32.307Z,8.94
2023-04-20T03:58:32.310Z,8.99
2023-04-20T03:59:32.301Z,8.93
2023-04-20T04:00:32.309Z,8.94
2023-04-20T04:01:32.277Z,8.90
2023-04-20T04:02:32.354Z,8.86
2023-04-20T04:03:32.464Z,8.84
2023-04-20T04:04:32.514Z,8.86
2023-04-20T04:05:32.269Z,9.01
2023-04-20T04:06:32.245Z,8.83
2023-04-20T04:07:32.205Z,8.93
2023-04-20T04:08:32.259Z,8.87
2023-04-20T04:09:32.184Z,8.83
2023-04-20T04:10:32.171Z,8.81
2023-04-20T04:11:32.159Z,8.84
2023-04-20T04:12:32.143Z,8.78
2023-04-20T04:13:34.393Z,8.84
2023-04-20T04:14:32.108Z,8.78
2023-04-20T04:15:32.141Z,8.81
2023-04-20T04:16:32.140Z,8.72
2023-04-20T04:17:32.155Z,8.86
2023-04-20T04:18:32.070Z,8.76
2023-04-20T04:19:32.078Z,8.88
2023-04-20T04:20:32.054Z,8.76
2023-04-20T04:21:32.097Z,8.79
2023-04-20T04:22:32.036Z,8.84
2023-04-20T04:23:32.016Z,8.86
2023-04-20T04:24:31.999Z,8.69
2023-04-20T04:25:32.005Z,8.79
2023-04-20T04:26:32.005Z,8.78
2023-04-20T04:27:31.987Z,8.65
2023-04-20T04:28:31.979Z,8.73
2023-04-20T04:29:31.941Z,8.75
2023-04-20T04:30:31.936Z,8.69
2023-04-20T04:31:32.082Z,8.68
2023-04-20T04:32:32.022Z,8.69
2023-04-20T04:33:31.896Z,8.66
2023-04-20T04:34:31.895Z,8.60
2023-04-20T04:35:31.946Z,8.72
2023-04-20T04:36:31.877Z,8.73
2023-04-20T04:37:31.895Z,8.76
2023-04-20T04:38:31.858Z,8.54
2023-04-20T04:39:31.830Z,8.58
2023-04-20T04:40:31.839Z,8.62
2023-04-20T04:41:31.858Z,8.66
2023-04-20T04:42:31.805Z,8.58
2023-04-20T04:43:31.792Z,8.71
2023-04-20T04:44:31.770Z,8.54
2023-04-20T04:45:31.791Z,8.62
2023-04-20T04:46:31.801Z,8.62
2023-04-20T04:47:31.768Z,8.55
2023-04-20T04:48:31.722Z,8.54
2023-04-20T04:49:31.732Z,8.55
2023-04-20T04:50:31.715Z,8.57
2023-04-20T04:51:31.730Z,8.65
2023-04-20T04:52:31.676Z,8.58
2023-04-20T04:53:31.709Z,8.62
2023-04-20T04:54:31.673Z,8.58
2023-04-20T04:55:31.685Z,8.62
2023-04-20T04:56:31.634Z,8.65
2023-04-20T04:57:31.642Z,8.54
2023-04-20T04:58:31.609Z,8.51
2023-04-20T04:59:31.619Z,8.58
2023-04-20T05:00:31.590Z,8.54
2023-04-20T05:01:31.627Z,8.37
2023-04-20T05:02:31.900Z,8.37
2023-04-20T05:03:31.714Z,8.22
2023-04-20T05:04:31.679Z,8.37
2023-04-20T05:05:31.549Z,8.40
2023-04-20T05:06:31.539Z,8.37
2023-04-20T05:07:31.525Z,8.29
2023-04-20T05:08:31.496Z,8.36
2023-04-20T05:09:31.533Z,8.25
2023-04-20T05:10:31.473Z,8.42
2023-04-20T05:11:31.494Z,8.32
2023-04-20T05:12:31.450Z,8.33
2023-04-20T05:13:31.459Z,8.22
2023-04-20T05:14:31.440Z,8.28
2023-04-20T05:15:31.425Z,8.30
2023-04-20T05:16:31.489Z,8.35
2023-04-20T05:17:31.513Z,8.33
2023-04-20T05:18:31.380Z,8.25
2023-04-20T05:19:31.375Z,8.36
2023-04-20T05:20:31.373Z,8.28
2023-04-20T05:21:31.369Z,8.30
2023-04-20T05:22:31.349Z,8.33
2023-04-20T05:23:31.340Z,8.32
2023-04-20T05:24:31.327Z,8.36
2023-04-20T05:25:31.338Z,8.36
2023-04-20T05:26:31.301Z,8.25
2023-04-20T05:27:31.295Z,8.32
2023-04-20T05:28:31.302Z,8.35
2023-04-20T05:29:31.260Z,8.35
2023-04-20T05:30:31.259Z,8.30
2023-04-20T05:31:31.268Z,8.39
2023-04-20T05:32:31.269Z,8.40
2023-04-20T05:33:31.214Z,8.28
2023-04-20T05:34:31.241Z,8.33
2023-04-20T05:35:31.204Z,8.28
2023-04-20T05:36:31.199Z,8.44
2023-04-20T05:37:31.181Z,8.37
2023-04-20T05:38:31.166Z,8.48
2023-04-20T05:39:31.168Z,8.26
2023-04-20T05:40:31.135Z,8.36
2023-04-20T05:41:31.176Z,8.30
2023-04-20T05:42:31.109Z,8.37
2023-04-20T05:43:31.105Z,8.33
2023-04-20T05:44:31.102Z,8.30
2023-04-20T05:45:31.138Z,8.39
2023-04-20T05:46:31.063Z,8.28
2023-04-20T05:47:31.136Z,8.36
2023-04-20T05:48:31.055Z,8.25
2023-04-20T05:49:31.036Z,8.37
2023-04-20T05:50:31.022Z,8.30
2023-04-20T05:51:31.009Z,8.32
2023-04-20T05:52:31.019Z,8.39
2023-04-20T05:53:31.014Z,8.32
2023-04-20T05:54:30.975Z,8.32
2023-04-20T05:55:30.969Z,8.39
2023-04-20T05:56:30.971Z,8.42
2023-04-20T05:57:30.975Z,8.26
2023-04-20T05:58:30.963Z,8.39
2023-04-20T05:59:30.921Z,8.32
2023-04-20T06:00:30.934Z,8.28
2023-04-20T06:01:30.912Z,8.25
2023-04-20T06:02:30.992Z,8.28
2023-04-20T06:03:31.082Z,8.35
2023-04-20T06:04:31.176Z,8.26
2023-04-20T06:05:31.042Z,8.35
2023-04-20T06:06:30.837Z,8.30
2023-04-20T06:07:30.870Z,8.35
2023-04-20T06:08:30.814Z,8.30
2023-04-20T06:09:30.814Z,8.29
2023-04-20T06:10:30.793Z,8.35
2023-04-20T06:11:30.801Z,8.28
2023-04-20T06:12:30.786Z,8.26
2023-04-20T06:13:30.788Z,8.28
2023-04-20T06:14:30.747Z,8.29
2023-04-20T06:15:30.906Z,8.26
2023-04-20T06:16:30.750Z,8.29
2023-04-20T06:17:30.795Z,8.33
2023-04-20T06:18:30.716Z,8.29
2023-04-20T06:19:30.725Z,8.26
2023-04-20T06:20:30.689Z,8.40
2023-04-20T06:21:30.686Z,8.26
2023-04-20T06:22:30.708Z,8.40
2023-04-20T06:23:30.652Z,8.28
2023-04-20T06:24:30.641Z,8.32
2023-04-20T06:25:30.643Z,8.30
2023-04-20T06:26:30.614Z,8.18
2023-04-20T06:27:30.658Z,8.14
2023-04-20T06:28:30.601Z,8.20
2023-04-20T06:29:30.615Z,8.21
2023-04-20T06:30:30.587Z,8.20
2023-04-20T06:31:30.626Z,8.14
2023-04-20T06:32:30.579Z,8.15
2023-04-20T06:33:30.552Z,8.10
2023-04-20T06:34:30.527Z,7.94
2023-04-20T06:35:30.563Z,8.08
2023-04-20T06:36:30.496Z,7.93
2023-04-20T06:37:30.554Z,7.99
2023-04-20T06:38:30.487Z,7.99
2023-04-20T06:39:30.481Z,7.93
2023-04-20T06:40:30.471Z,7.90
2023-04-20T06:41:30.458Z,8.00
2023-04-20T06:42:30.472Z,8.03
2023-04-20T06:43:30.428Z,8.11
2023-04-20T06:44:30.415Z,7.97
2023-04-20T06:45:32.846Z,8.02
2023-04-20T06:46:30.429Z,7.97
2023-04-20T06:47:30.448Z,8.04
2023-04-20T06:48:32.089Z,8.07
2023-04-20T06:49:30.364Z,8.03
2023-04-20T06:50:30.350Z,8.11
2023-04-20T06:51:30.354Z,7.99
2023-04-20T06:52:30.345Z,8.02
2023-04-20T06:53:30.311Z,8.04
2023-04-20T06:54:30.289Z,8.11
2023-04-20T06:55:30.283Z,8.00
2023-04-20T06:56:30.278Z,7.99
2023-04-20T06:57:30.296Z,8.07
2023-04-20T06:58:30.247Z,8.15
2023-04-20T06:59:30.260Z,8.11
2023-04-20T07:00:30.245Z,8.08
2023-04-20T07:01:30.379Z,8.12
2023-04-20T07:02:30.279Z,8.08
2023-04-20T07:03:30.332Z,7.92
2023-04-20T07:04:30.231Z,7.99
2023-04-20T07:05:30.194Z,8.15
2023-04-20T07:06:30.166Z,8.15
2023-04-20T07:07:30.192Z,8.12
2023-04-20T07:08:30.137Z,8.18
2023-04-20T07:09:30.144Z,8.07
2023-04-20T07:10:30.122Z,8.12
2023-04-20T07:11:30.124Z,8.14
2023-04-20T07:12:30.108Z,8.22
2023-04-20T07:13:33.418Z,8.11
2023-04-20T07:14:30.068Z,8.22
2023-04-20T07:15:30.072Z,8.10
2023-04-20T07:16:30.139Z,8.25
2023-04-20T07:17:30.242Z,8.11
2023-04-20T07:18:30.060Z,8.08
2023-04-20T07:19:30.039Z,8.18
2023-04-20T07:20:30.023Z,8.17
2023-04-20T07:21:30.002Z,8.20
2023-04-20T07:22:30.016Z,8.22
2023-04-20T07:23:29.998Z,8.12
2023-04-20T07:24:29.965Z,8.15
2023-04-20T07:25:29.957Z,8.15
2023-04-20T07:26:29.946Z,8.21
2023-04-20T07:27:29.931Z,8.17
2023-04-20T07:28:29.928Z,8.17
2023-04-20T07:29:30.467Z,8.04
2023-04-20T07:30:29.901Z,8.12
2023-04-20T07:31:29.894Z,8.18
2023-04-20T07:32:29.943Z,8.20
2023-04-20T07:33:29.949Z,8.26
2023-04-20T07:34:29.852Z,8.30
2023-04-20T07:35:29.838Z,8.18
2023-04-20T07:36:29.825Z,8.26
2023-04-20T07:37:29.834Z,8.35
2023-04-20T07:38:29.807Z,8.18
2023-04-20T07:39:29.793Z,8.22
2023-04-20T07:40:29.789Z,8.37
2023-04-20T07:41:29.760Z,8.42
2023-04-20T07:42:29.920Z,8.32
2023-04-20T07:43:29.741Z,8.45
2023-04-20T07:44:29.744Z,8.45
2023-04-20T07:45:29.744Z,8.51
2023-04-20T07:46:29.726Z,8.53
2023-04-20T07:47:29.735Z,8.47
2023-04-20T07:48:29.701Z,8.40
2023-04-20T07:49:29.964Z,8.36
2023-04-20T07:50:29.674Z,8.39
2023-04-20T07:51:29.647Z,8.33
2023-04-20T07:52:29.663Z,8.25
2023-04-20T07:53:29.657Z,8.32
2023-04-20T07:54:29.645Z,8.30
2023-04-20T07:55:29.625Z,8.30
2023-04-20T07:56:29.609Z,8.37
2023-04-20T07:57:29.606Z,8.37
2023-04-20T07:58:29.592Z,8.32
2023-04-20T07:59:29.579Z,8.37
2023-04-20T08:00:29.576Z,8.36
2023-04-20T08:01:29.558Z,8.39
2023-04-20T08:02:29.663Z,8.33
2023-04-20T08:03:29.646Z,8.48
2023-04-20T08:04:29.781Z,8.57
2023-04-20T08:05:29.852Z,8.60
2023-04-20T08:06:29.484Z,8.57
2023-04-20T08:07:29.479Z,8.55
2023-04-20T08:08:29.726Z,8.55
2023-04-20T08:09:29.459Z,8.57
2023-04-20T08:10:29.462Z,8.51
2023-04-20T08:11:29.436Z,8.65
2023-04-20T08:12:29.458Z,8.54
2023-04-20T08:13:29.402Z,8.54
2023-04-20T08:14:29.472Z,8.57
2023-04-20T08:15:29.405Z,8.58
2023-04-20T08:16:29.496Z,8.75
2023-04-20T08:17:29.387Z,8.73
2023-04-20T08:18:29.376Z,8.58
2023-04-20T08:19:29.343Z,8.73
2023-04-20T08:20:29.326Z,8.72
2023-04-20T08:21:29.428Z,8.71
2023-04-20T08:22:29.312Z,8.68
2023-04-20T08:23:29.287Z,8.62
2023-04-20T08:24:29.289Z,8.65
2023-04-20T08:25:29.280Z,8.66
2023-04-20T08:26:29.380Z,8.75
2023-04-20T08:27:29.246Z,8.73
2023-04-20T08:28:34.096Z,8.69
2023-04-20T08:29:30.245Z,8.76
2023-04-20T08:30:29.232Z,8.66
2023-04-20T08:31:29.319Z,8.66
2023-04-20T08:32:29.190Z,8.60
2023-04-20T08:33:29.212Z,8.65
2023-04-20T08:34:29.166Z,8.57
2023-04-20T08:35:29.169Z,8.65
2023-04-20T08:36:29.158Z,8.66
2023-04-20T08:37:32.064Z,8.57
2023-04-20T08:38:33.681Z,8.60
2023-04-20T08:39:30.125Z,8.58
2023-04-20T08:40:29.112Z,8.57
2023-04-20T08:41:29.096Z,8.58
2023-04-20T08:42:29.086Z,8.55
2023-04-20T08:43:29.083Z,8.71
2023-04-20T08:44:29.060Z,8.76
2023-04-20T08:45:29.048Z,8.65
2023-04-20T08:46:29.086Z,8.83
2023-04-20T08:47:29.076Z,8.83
2023-04-20T08:48:29.091Z,8.87
2023-04-20T08:49:28.996Z,8.83
2023-04-20T08:50:29.000Z,8.83
2023-04-20T08:51:28.978Z,8.84
2023-04-20T08:52:28.975Z,8.94
2023-04-20T08:53:28.995Z,8.99
2023-04-20T08:54:28.935Z,9.01
2023-04-20T08:55:28.940Z,9.05
2023-04-20T08:56:28.938Z,9.06
2023-04-20T08:57:28.918Z,9.06
2023-04-20T08:58:28.915Z,9.16
2023-04-20T08:59:28.887Z,9.16
2023-04-20T09:00:28.918Z,9.05
2023-04-20T09:01:35.529Z,9.01
2023-04-20T09:02:30.036Z,9.09
2023-04-20T09:03:29.059Z,9.21
2023-04-20T09:04:29.064Z,9.16
2023-04-20T09:05:29.007Z,9.24
2023-04-20T09:06:28.797Z,9.16
2023-04-20T09:07:28.785Z,9.13
2023-04-20T09:08:28.784Z,9.05
2023-04-20T09:09:28.867Z,8.86
2023-04-20T09:10:28.776Z,8.83
2023-04-20T09:11:28.758Z,8.68
2023-04-20T09:12:28.741Z,8.76
2023-04-20T09:13:28.715Z,8.66
2023-04-20T09:14:28.709Z,8.71
2023-04-20T09:15:28.716Z,8.78
2023-04-20T09:16:28.748Z,8.79
2023-04-20T09:17:28.714Z,8.68
2023-04-20T09:18:28.660Z,8.63
2023-04-20T09:19:28.652Z,8.60
2023-04-20T09:20:28.650Z,8.55
2023-04-20T09:21:28.626Z,8.62
2023-04-20T09:22:28.628Z,8.60
2023-04-20T09:23:28.662Z,8.54
2023-04-20T09:24:28.590Z,8.45
2023-04-20T09:25:29.122Z,8.44
2023-04-20T09:26:28.579Z,8.47
2023-04-20T09:27:28.568Z,8.50
2023-04-20T09:28:28.648Z,8.60
2023-04-20T09:29:28.553Z,8.68
2023-04-20T09:30:28.549Z,8.63
2023-04-20T09:31:28.566Z,8.75
2023-04-20T09:32:28.612Z,8.90
2023-04-20T09:33:28.509Z,8.90
2023-04-20T09:34:28.480Z,9.02
2023-04-20T09:35:28.465Z,9.16
2023-04-20T09:36:28.468Z,9.21
2023-04-20T09:37:28.438Z,9.38
2023-04-20T09:38:28.462Z,9.31
2023-04-20T09:39:29.042Z,9.38
2023-04-20T09:40:28.419Z,9.32
2023-04-20T09:41:28.419Z,9.39
2023-04-20T09:42:28.418Z,9.49
2023-04-20T09:43:28.411Z,9.43
2023-04-20T09:44:28.389Z,9.46
2023-04-20T09:45:28.426Z,9.35
2023-04-20T09:46:28.419Z,9.42
2023-04-20T09:47:28.400Z,9.30
2023-04-20T09:48:30.145Z,9.32
2023-04-20T09:49:28.310Z,9.30
2023-04-20T09:50:38.283Z,9.18
2023-04-20T09:51:29.278Z,8.90
2023-04-20T09:52:28.289Z,8.69
2023-04-20T09:53:28.279Z,8.73
2023-04-20T09:54:28.251Z,8.60
2023-04-20T09:55:28.265Z,8.47
2023-04-20T09:56:28.259Z,8.35
2023-04-20T09:57:28.248Z,8.36
2023-04-20T09:58:28.205Z,8.20
2023-04-20T09:59:28.209Z,7.87
2023-04-20T10:00:28.194Z,7.74
2023-04-20T10:01:28.275Z,7.72
2023-04-20T10:02:28.239Z,7.78
2023-04-20T10:03:28.276Z,7.63
2023-04-20T10:04:28.255Z,7.63
2023-04-20T10:05:28.141Z,7.74
2023-04-20T10:06:28.130Z,7.89
2023-04-20T10:07:28.141Z,7.93
2023-04-20T10:08:28.094Z,8.00
2023-04-20T10:09:28.109Z,8.00
2023-04-20T10:10:28.086Z,8.03
2023-04-20T10:11:37.123Z,8.18
2023-04-20T10:12:29.076Z,8.18
2023-04-20T10:13:28.060Z,8.20
2023-04-20T10:14:28.043Z,8.26
2023-04-20T10:15:28.023Z,8.25
2023-04-20T10:16:28.060Z,8.26
2023-04-20T10:17:28.071Z,8.40
2023-04-20T10:18:28.054Z,8.37
2023-04-20T10:19:28.016Z,8.40
2023-04-20T10:20:27.959Z,8.42
2023-04-20T10:21:27.967Z,8.44
2023-04-20T10:22:27.934Z,8.44
2023-04-20T10:23:27.948Z,8.39
2023-04-20T10:24:27.928Z,8.42
2023-04-20T10:25:27.912Z,8.54
2023-04-20T10:26:27.906Z,8.47
2023-04-20T10:27:27.873Z,8.62
2023-04-20T10:28:27.899Z,8.63
2023-04-20T10:29:28.001Z,8.84
2023-04-20T10:30:27.895Z,8.94
2023-04-20T10:31:27.934Z,8.90
2023-04-20T10:32:27.987Z,9.01
2023-04-20T10:33:27.835Z,9.20
2023-04-20T10:34:27.841Z,9.21
2023-04-20T10:35:27.795Z,9.45
2023-04-20T10:36:27.838Z,9.75
2023-04-20T10:37:27.761Z,9.96
2023-04-20T10:38:27.764Z,10.07
2023-04-20T10:39:27.765Z,10.36
2023-04-20T10:40:27.752Z,10.53
2023-04-20T10:41:27.726Z,10.58
2023-04-20T10:42:27.702Z,10.73
2023-04-20T10:43:27.703Z,10.65
2023-04-20T10:44:27.716Z,10.73
2023-04-20T10:45:27.792Z,10.66
2023-04-20T10:46:27.848Z,10.66
2023-04-20T10:47:27.685Z,10.68
2023-04-20T10:48:27.662Z,10.51
2023-04-20T10:49:27.674Z,10.42
2023-04-20T10:50:27.635Z,10.28
2023-04-20T10:51:27.603Z,10.18
2023-04-20T10:52:27.606Z,9.97
2023-04-20T10:53:27.603Z,9.96
2023-04-20T10:54:27.598Z,9.93
2023-04-20T10:55:27.568Z,9.89
2023-04-20T10:56:27.586Z,9.79
2023-04-20T10:57:27.533Z,9.78
2023-04-20T10:58:27.564Z,9.75
2023-04-20T10:59:27.535Z,9.81
2023-04-20T11:00:27.516Z,9.76
2023-04-20T11:01:27.706Z,9.81
2023-04-20T11:02:27.604Z,9.83
2023-04-20T11:03:27.567Z,9.91
2023-04-20T11:04:27.514Z,9.97
2023-04-20T11:05:27.486Z,9.96
2023-04-20T11:06:27.438Z,9.88
2023-04-20T11:07:27.429Z,9.83
2023-04-20T11:08:28.068Z,9.96
2023-04-20T11:09:27.428Z,9.96
2023-04-20T11:10:27.389Z,10.06
2023-04-20T11:11:27.460Z,10.14
2023-04-20T11:12:27.408Z,10.26
2023-04-20T11:13:27.392Z,10.37
2023-04-20T11:14:27.388Z,10.40
2023-04-20T11:15:27.326Z,10.43
2023-04-20T11:16:36.914Z,10.60
2023-04-20T11:17:28.434Z,10.56
2023-04-20T11:18:27.296Z,10.70
2023-04-20T11:19:27.294Z,10.53
2023-04-20T11:20:27.343Z,10.34
2023-04-20T11:21:27.288Z,10.33
2023-04-20T11:22:27.251Z,10.28
2023-04-20T11:23:27.249Z,10.33
2023-04-20T11:24:27.232Z,10.37
2023-04-20T11:25:27.232Z,10.36
2023-04-20T11:26:27.241Z,10.39
2023-04-20T11:27:27.190Z,10.52
2023-04-20T11:28:27.192Z,10.58
2023-04-20T11:29:27.190Z,10.76
2023-04-20T11:30:27.176Z,10.89
2023-04-20T11:31:27.294Z,11.01
2023-04-20T11:32:27.444Z,11.06
2023-04-20T11:33:27.291Z,11.09
2023-04-20T11:34:27.117Z,11.11
2023-04-20T11:35:27.139Z,11.16
2023-04-20T11:36:27.095Z,11.25
2023-04-20T11:37:27.077Z,11.06
2023-04-20T11:38:27.090Z,10.86
2023-04-20T11:39:27.055Z,10.73
2023-04-20T11:40:28.743Z,10.46
2023-04-20T11:41:27.027Z,10.36
2023-04-20T11:42:27.036Z,10.33
2023-04-20T11:43:27.004Z,10.37
2023-04-20T11:44:27.014Z,10.32
2023-04-20T11:45:27.038Z,10.37
2023-04-20T11:46:27.026Z,10.36
2023-04-20T11:47:27.008Z,10.30
2023-04-20T11:48:26.958Z,10.30
2023-04-20T11:49:26.980Z,10.37
2023-04-20T11:50:26.968Z,10.68
2023-04-20T11:51:26.917Z,10.80
2023-04-20T11:52:26.910Z,11.14
2023-04-20T11:53:26.910Z,11.27
2023-04-20T11:54:26.879Z,11.62
2023-04-20T11:55:26.913Z,11.85
2023-04-20T11:56:26.879Z,11.97
2023-04-20T11:57:26.860Z,11.93
2023-04-20T11:58:26.845Z,11.96
2023-04-20T11:59:26.829Z,11.86
2023-04-20T12:00:26.841Z,11.77
2023-04-20T12:01:26.808Z,11.77
2023-04-20T12:02:26.913Z,11.65
2023-04-20T12:03:26.885Z,11.74
2023-04-20T12:04:27.024Z,11.70
2023-04-20T12:05:26.869Z,11.67
2023-04-20T12:06:26.753Z,11.86
2023-04-20T12:07:26.749Z,11.77
2023-04-20T12:08:26.747Z,11.59
2023-04-20T12:09:26.727Z,11.53
2023-04-20T12:10:26.721Z,11.34
2023-04-20T12:11:26.715Z,11.20
2023-04-20T12:12:26.747Z,11.13
2023-04-20T12:13:26.666Z,11.06
2023-04-20T12:14:26.664Z,11.07
2023-04-20T12:15:26.668Z,11.20
2023-04-20T12:16:26.797Z,11.03
2023-04-20T12:17:26.690Z,11.13
2023-04-20T12:18:26.606Z,11.10
2023-04-20T12:19:26.609Z,11.38
2023-04-20T12:20:26.598Z,11.62
2023-04-20T12:21:26.651Z,11.78
2023-04-20T12:22:26.583Z,11.83
2023-04-20T12:23:26.552Z,11.99
2023-04-20T12:24:26.546Z,12.12
2023-04-20T12:25:26.567Z,12.16
2023-04-20T12:26:36.968Z,12.08
2023-04-20T12:27:27.506Z,12.12
2023-04-20T12:28:26.504Z,12.19
2023-04-20T12:29:26.512Z,12.20
2023-04-20T12:30:26.493Z,12.31
2023-04-20T12:31:26.794Z,12.23
2023-04-20T12:32:26.496Z,12.13
2023-04-20T12:33:26.453Z,12.23
2023-04-20T12:34:26.424Z,12.15
2023-04-20T12:35:26.421Z,12.12
2023-04-20T12:36:26.435Z,12.16
2023-04-20T12:37:26.488Z,12.19
2023-04-20T12:38:26.376Z,12.08
2023-04-20T12:39:26.371Z,11.86
2023-04-20T12:40:26.368Z,11.77
2023-04-20T12:41:26.351Z,11.57
2023-04-20T12:42:26.374Z,11.53
2023-04-20T12:43:26.325Z,11.50
2023-04-20T12:44:26.326Z,11.47
2023-04-20T12:45:26.347Z,11.59
2023-04-20T12:46:26.313Z,11.61
2023-04-20T12:47:26.309Z,11.62
2023-04-20T12:48:26.283Z,11.57
2023-04-20T12:49:26.267Z,11.65
2023-04-20T12:50:26.262Z,11.78
2023-04-20T12:51:26.233Z,11.72
2023-04-20T12:52:26.237Z,11.89
2023-04-20T12:53:26.236Z,12.01
2023-04-20T12:54:26.211Z,12.19
2023-04-20T12:55:26.194Z,12.21
2023-04-20T12:56:26.192Z,12.38
2023-04-20T12:57:26.176Z,12.29
2023-04-20T12:58:26.161Z,12.42
2023-04-20T12:59:26.142Z,12.54
2023-04-20T13:00:26.146Z,12.54
2023-04-20T13:01:26.211Z,12.77
2023-04-20T13:02:26.279Z,12.82
2023-04-20T13:03:26.381Z,13.21
2023-04-20T13:04:26.351Z,13.55
2023-04-20T13:05:26.107Z,13.77
2023-04-20T13:06:26.168Z,13.95
2023-04-20T13:07:26.067Z,14.07
2023-04-20T13:08:26.052Z,14.13
2023-04-20T13:09:26.052Z,14.28
2023-04-20T13:10:26.079Z,13.89
2023-04-20T13:11:27.279Z,13.65
2023-04-20T13:12:26.000Z,13.74
2023-04-20T13:13:25.983Z,13.62